sensor_id;sensor_type;location;lat;lon;timestamp;P1;durP1;ratioP1;P2;durP2;ratioP2
4186;SDS011;2107;52.306;10.484;2022-08-01T00:02:18;0.00;;;0.00;;
4186;SDS011;2107;52.306;10.484;2022-08-01T00:04:45;0.00;;;0.00;;
4186;SDS011;2107;52.306;10.484;2022-08-01T00:07:14;0.00;;;0.00;;
4186;SDS011;2107;52.306;10.484;2022-08-01T00:09:40;0.00;;;0.00;;
4186;SDS011;2107;52.306;10.484;2022-08-01T00:12:07;0.00;;;0.00;;
4186;SDS011;2107;52.306;10.484;2022-08-01T00:14:34;0.00;;;0.00;;
4186;SDS011;2107;52.306;10.484;2022-08-01T00:17:01;0.00;;;0.00;;
4186;SDS011;2107;52.306;10.484;2022-08-01T00:19:29;0.00;;;0.00;;
4186;SDS011;2107;52.306;10.484;2022-08-01T00:21:55;0.00;;;0.00;;
4186;SDS011;2107;52.306;10.484;2022-08-01T00:24:24;0.00;;;0.00;;
4186;SDS011;2107;52.306;10.484;2022-08-01T00:26:51;0.00;;;0.00;;
4186;SDS011;2107;52.306;10.484;2022-08-01T00:29:18;0.00;;;0.00;;
4186;SDS011;2107;52.306;10.484;2022-08-01T00:31:45;0.00;;;0.00;;
4186;SDS011;2107;52.306;10.484;2022-08-01T00:34:11;0.00;;;0.00;;
4186;SDS011;2107;52.306;10.484;2022-08-01T00:36:38;0.00;;;0.00;;
4186;SDS011;2107;52.306;10.484;2022-08-01T00:39:05;0.00;;;0.00;;
4186;SDS011;2107;52.306;10.484;2022-08-01T00:41:33;0.00;;;0.00;;
4186;SDS011;2107;52.306;10.484;2022-08-01T00:44:03;0.00;;;0.00;;
4186;SDS011;2107;52.306;10.484;2022-08-01T00:46:30;0.10;;;0.10;;
4186;SDS011;2107;52.306;10.484;2022-08-01T00:48:59;0.10;;;0.10;;
4186;SDS011;2107;52.306;10.484;2022-08-01T00:51:27;0.10;;;0.10;;
4186;SDS011;2107;52.306;10.484;2022-08-01T00:53:54;0.10;;;0.10;;
4186;SDS011;2107;52.306;10.484;2022-08-01T00:56:22;0.00;;;0.00;;
4186;SDS011;2107;52.306;10.484;2022-08-01T00:58:53;0.00;;;0.00;;
4186;SDS011;2107;52.306;10.484;2022-08-01T01:01:22;0.00;;;0.00;;
4186;SDS011;2107;52.306;10.484;2022-08-01T01:03:49;0.10;;;0.10;;
4186;SDS011;2107;52.306;10.484;2022-08-01T01:06:25;0.00;;;0.00;;
4186;SDS011;2107;52.306;10.484;2022-08-01T01:09:11;0.10;;;0.10;;
4186;SDS011;2107;52.306;10.484;2022-08-01T01:11:44;0.10;;;0.10;;
4186;SDS011;2107;52.306;10.484;2022-08-01T01:14:19;0.10;;;0.10;;
4186;SDS011;2107;52.306;10.484;2022-08-01T01:16:53;0.10;;;0.10;;
4186;SDS011;2107;52.306;10.484;2022-08-01T01:19:22;0.00;;;0.00;;
4186;SDS011;2107;52.306;10.484;2022-08-01T01:22:07;0.10;;;0.10;;
4186;SDS011;2107;52.306;10.484;2022-08-01T01:24:45;0.10;;;0.10;;
4186;SDS011;2107;52.306;10.484;2022-08-01T01:27:21;0.10;;;0.10;;
4186;SDS011;2107;52.306;10.484;2022-08-01T01:29:57;0.10;;;0.10;;
4186;SDS011;2107;52.306;10.484;2022-08-01T01:32:28;0.10;;;0.10;;
4186;SDS011;2107;52.306;10.484;2022-08-01T01:34:59;0.10;;;0.10;;
4186;SDS011;2107;52.306;10.484;2022-08-01T01:37:29;0.10;;;0.10;;
4186;SDS011;2107;52.306;10.484;2022-08-01T01:40:00;0.10;;;0.10;;
4186;SDS011;2107;52.306;10.484;2022-08-01T01:42:30;0.10;;;0.10;;
4186;SDS011;2107;52.306;10.484;2022-08-01T01:44:59;0.10;;;0.10;;
4186;SDS011;2107;52.306;10.484;2022-08-01T01:47:28;0.00;;;0.00;;
4186;SDS011;2107;52.306;10.484;2022-08-01T01:49:57;0.00;;;0.00;;
4186;SDS011;2107;52.306;10.484;2022-08-01T01:52:26;0.00;;;0.00;;
4186;SDS011;2107;52.306;10.484;2022-08-01T01:54:55;0.00;;;0.00;;
4186;SDS011;2107;52.306;10.484;2022-08-01T01:57:24;0.00;;;0.00;;
4186;SDS011;2107;52.306;10.484;2022-08-01T01:59:53;0.00;;;0.00;;
4186;SDS011;2107;52.306;10.484;2022-08-01T02:02:22;0.00;;;0.00;;
4186;SDS011;2107;52.306;10.484;2022-08-01T02:04:50;0.00;;;0.00;;
4186;SDS011;2107;52.306;10.484;2022-08-01T02:07:19;0.00;;;0.00;;
4186;SDS011;2107;52.306;10.484;2022-08-01T02:09:48;0.00;;;0.00;;
4186;SDS011;2107;52.306;10.484;2022-08-01T02:12:17;0.00;;;0.00;;
4186;SDS011;2107;52.306;10.484;2022-08-01T02:14:47;0.00;;;0.00;;
4186;SDS011;2107;52.306;10.484;2022-08-01T02:17:16;0.00;;;0.00;;
4186;SDS011;2107;52.306;10.484;2022-08-01T02:19:46;0.00;;;0.00;;
4186;SDS011;2107;52.306;10.484;2022-08-01T02:22:14;0.00;;;0.00;;
4186;SDS011;2107;52.306;10.484;2022-08-01T02:24:49;0.00;;;0.00;;
4186;SDS011;2107;52.306;10.484;2022-08-01T02:27:20;0.00;;;0.00;;
4186;SDS011;2107;52.306;10.484;2022-08-01T02:29:52;0.00;;;0.00;;
4186;SDS011;2107;52.306;10.484;2022-08-01T02:32:24;0.00;;;0.00;;
4186;SDS011;2107;52.306;10.484;2022-08-01T02:34:55;0.00;;;0.00;;
4186;SDS011;2107;52.306;10.484;2022-08-01T02:37:25;0.00;;;0.00;;
4186;SDS011;2107;52.306;10.484;2022-08-01T02:39:52;0.00;;;0.00;;
4186;SDS011;2107;52.306;10.484;2022-08-01T02:42:22;0.00;;;0.00;;
4186;SDS011;2107;52.306;10.484;2022-08-01T02:44:52;0.00;;;0.00;;
4186;SDS011;2107;52.306;10.484;2022-08-01T02:47:20;0.00;;;0.00;;
4186;SDS011;2107;52.306;10.484;2022-08-01T02:49:49;0.00;;;0.00;;
4186;SDS011;2107;52.306;10.484;2022-08-01T02:52:20;0.00;;;0.00;;
4186;SDS011;2107;52.306;10.484;2022-08-01T02:54:48;0.00;;;0.00;;
4186;SDS011;2107;52.306;10.484;2022-08-01T02:57:17;0.00;;;0.00;;
4186;SDS011;2107;52.306;10.484;2022-08-01T02:59:46;0.00;;;0.00;;
4186;SDS011;2107;52.306;10.484;2022-08-01T03:02:15;0.00;;;0.00;;
4186;SDS011;2107;52.306;10.484;2022-08-01T03:04:43;0.00;;;0.00;;
4186;SDS011;2107;52.306;10.484;2022-08-01T03:07:11;0.00;;;0.00;;
4186;SDS011;2107;52.306;10.484;2022-08-01T03:09:41;0.00;;;0.00;;
4186;SDS011;2107;52.306;10.484;2022-08-01T03:12:11;0.00;;;0.00;;
4186;SDS011;2107;52.306;10.484;2022-08-01T03:14:40;0.00;;;0.00;;
4186;SDS011;2107;52.306;10.484;2022-08-01T03:17:10;0.00;;;0.00;;
4186;SDS011;2107;52.306;10.484;2022-08-01T03:19:38;0.00;;;0.00;;
4186;SDS011;2107;52.306;10.484;2022-08-01T03:22:05;0.00;;;0.00;;
4186;SDS011;2107;52.306;10.484;2022-08-01T03:24:34;0.00;;;0.00;;
4186;SDS011;2107;52.306;10.484;2022-08-01T03:27:04;0.00;;;0.00;;
4186;SDS011;2107;52.306;10.484;2022-08-01T03:29:33;0.00;;;0.00;;
4186;SDS011;2107;52.306;10.484;2022-08-01T03:32:02;0.00;;;0.00;;
4186;SDS011;2107;52.306;10.484;2022-08-01T03:34:30;0.00;;;0.00;;
4186;SDS011;2107;52.306;10.484;2022-08-01T03:36:59;0.00;;;0.00;;
4186;SDS011;2107;52.306;10.484;2022-08-01T03:39:32;0.00;;;0.00;;
4186;SDS011;2107;52.306;10.484;2022-08-01T03:42:07;0.00;;;0.00;;
4186;SDS011;2107;52.306;10.484;2022-08-01T03:44:38;0.00;;;0.00;;
4186;SDS011;2107;52.306;10.484;2022-08-01T03:47:07;0.00;;;0.00;;
4186;SDS011;2107;52.306;10.484;2022-08-01T03:49:37;0.00;;;0.00;;
4186;SDS011;2107;52.306;10.484;2022-08-01T03:52:09;0.00;;;0.00;;
4186;SDS011;2107;52.306;10.484;2022-08-01T03:54:43;0.00;;;0.00;;
4186;SDS011;2107;52.306;10.484;2022-08-01T03:57:14;0.00;;;0.00;;
4186;SDS011;2107;52.306;10.484;2022-08-01T03:59:42;0.00;;;0.00;;
4186;SDS011;2107;52.306;10.484;2022-08-01T04:02:11;0.00;;;0.00;;
4186;SDS011;2107;52.306;10.484;2022-08-01T04:04:39;0.00;;;0.00;;
4186;SDS011;2107;52.306;10.484;2022-08-01T04:07:20;0.00;;;0.00;;
4186;SDS011;2107;52.306;10.484;2022-08-01T04:09:49;0.00;;;0.00;;
4186;SDS011;2107;52.306;10.484;2022-08-01T04:12:17;0.00;;;0.00;;
4186;SDS011;2107;52.306;10.484;2022-08-01T04:14:45;0.00;;;0.00;;
4186;SDS011;2107;52.306;10.484;2022-08-01T04:17:12;0.00;;;0.00;;
4186;SDS011;2107;52.306;10.484;2022-08-01T04:19:39;0.00;;;0.00;;
4186;SDS011;2107;52.306;10.484;2022-08-01T04:22:06;0.00;;;0.00;;
4186;SDS011;2107;52.306;10.484;2022-08-01T04:24:35;0.00;;;0.00;;
4186;SDS011;2107;52.306;10.484;2022-08-01T04:27:05;0.00;;;0.00;;
4186;SDS011;2107;52.306;10.484;2022-08-01T04:29:37;0.00;;;0.00;;
4186;SDS011;2107;52.306;10.484;2022-08-01T04:32:05;0.00;;;0.00;;
4186;SDS011;2107;52.306;10.484;2022-08-01T04:34:35;0.00;;;0.00;;
4186;SDS011;2107;52.306;10.484;2022-08-01T04:37:06;0.00;;;0.00;;
4186;SDS011;2107;52.306;10.484;2022-08-01T04:39:35;0.00;;;0.00;;
4186;SDS011;2107;52.306;10.484;2022-08-01T04:42:05;0.00;;;0.00;;
4186;SDS011;2107;52.306;10.484;2022-08-01T04:44:33;0.00;;;0.00;;
4186;SDS011;2107;52.306;10.484;2022-08-01T04:47:02;0.00;;;0.00;;
4186;SDS011;2107;52.306;10.484;2022-08-01T04:49:30;0.00;;;0.00;;
4186;SDS011;2107;52.306;10.484;2022-08-01T04:51:57;0.00;;;0.00;;
4186;SDS011;2107;52.306;10.484;2022-08-01T04:54:25;0.00;;;0.00;;
4186;SDS011;2107;52.306;10.484;2022-08-01T04:56:52;0.00;;;0.00;;
4186;SDS011;2107;52.306;10.484;2022-08-01T04:59:20;0.00;;;0.00;;
4186;SDS011;2107;52.306;10.484;2022-08-01T05:02:07;0.00;;;0.00;;
4186;SDS011;2107;52.306;10.484;2022-08-01T05:04:35;0.00;;;0.00;;
4186;SDS011;2107;52.306;10.484;2022-08-01T05:07:03;0.00;;;0.00;;
4186;SDS011;2107;52.306;10.484;2022-08-01T05:09:30;0.00;;;0.00;;
4186;SDS011;2107;52.306;10.484;2022-08-01T05:11:58;0.00;;;0.00;;
4186;SDS011;2107;52.306;10.484;2022-08-01T05:14:26;0.00;;;0.00;;
4186;SDS011;2107;52.306;10.484;2022-08-01T05:16:53;0.00;;;0.00;;
4186;SDS011;2107;52.306;10.484;2022-08-01T05:19:22;0.00;;;0.00;;
4186;SDS011;2107;52.306;10.484;2022-08-01T05:21:49;0.00;;;0.00;;
4186;SDS011;2107;52.306;10.484;2022-08-01T05:24:17;0.00;;;0.00;;
4186;SDS011;2107;52.306;10.484;2022-08-01T05:26:44;0.10;;;0.10;;
4186;SDS011;2107;52.306;10.484;2022-08-01T05:29:10;0.10;;;0.10;;
4186;SDS011;2107;52.306;10.484;2022-08-01T05:31:37;0.10;;;0.10;;
4186;SDS011;2107;52.306;10.484;2022-08-01T05:34:04;0.10;;;0.10;;
4186;SDS011;2107;52.306;10.484;2022-08-01T05:36:33;0.20;;;0.20;;
4186;SDS011;2107;52.306;10.484;2022-08-01T05:39:00;0.20;;;0.20;;
4186;SDS011;2107;52.306;10.484;2022-08-01T05:41:27;0.30;;;0.30;;
4186;SDS011;2107;52.306;10.484;2022-08-01T05:43:53;0.30;;;0.30;;
4186;SDS011;2107;52.306;10.484;2022-08-01T05:46:20;0.60;;;0.60;;
4186;SDS011;2107;52.306;10.484;2022-08-01T05:48:47;0.60;;;0.60;;
4186;SDS011;2107;52.306;10.484;2022-08-01T05:51:14;0.80;;;0.80;;
4186;SDS011;2107;52.306;10.484;2022-08-01T05:53:42;1.30;;;1.30;;
4186;SDS011;2107;52.306;10.484;2022-08-01T05:56:09;1.70;;;1.70;;
4186;SDS011;2107;52.306;10.484;2022-08-01T05:58:36;2.30;;;2.30;;
4186;SDS011;2107;52.306;10.484;2022-08-01T06:01:03;2.70;;;2.70;;
4186;SDS011;2107;52.306;10.484;2022-08-01T06:03:30;3.70;;;3.70;;
4186;SDS011;2107;52.306;10.484;2022-08-01T06:05:58;4.63;;;4.63;;
4186;SDS011;2107;52.306;10.484;2022-08-01T06:08:25;5.00;;;5.00;;
4186;SDS011;2107;52.306;10.484;2022-08-01T06:10:53;5.50;;;5.50;;
4186;SDS011;2107;52.306;10.484;2022-08-01T06:13:20;6.37;;;6.37;;
4186;SDS011;2107;52.306;10.484;2022-08-01T06:15:47;5.90;;;5.90;;
4186;SDS011;2107;52.306;10.484;2022-08-01T06:18:14;5.30;;;5.30;;
4186;SDS011;2107;52.306;10.484;2022-08-01T06:20:42;6.00;;;6.00;;
4186;SDS011;2107;52.306;10.484;2022-08-01T06:23:09;5.80;;;5.80;;
4186;SDS011;2107;52.306;10.484;2022-08-01T06:25:36;5.10;;;5.10;;
4186;SDS011;2107;52.306;10.484;2022-08-01T06:28:04;5.20;;;5.20;;
4186;SDS011;2107;52.306;10.484;2022-08-01T06:30:31;5.70;;;5.70;;
4186;SDS011;2107;52.306;10.484;2022-08-01T06:32:58;6.10;;;6.10;;
4186;SDS011;2107;52.306;10.484;2022-08-01T06:35:25;5.70;;;5.70;;
4186;SDS011;2107;52.306;10.484;2022-08-01T06:37:54;5.37;;;5.37;;
4186;SDS011;2107;52.306;10.484;2022-08-01T06:40:21;4.67;;;4.67;;
4186;SDS011;2107;52.306;10.484;2022-08-01T06:42:48;4.50;;;4.50;;
4186;SDS011;2107;52.306;10.484;2022-08-01T06:45:17;5.00;;;5.00;;
4186;SDS011;2107;52.306;10.484;2022-08-01T06:47:47;4.73;;;4.73;;
4186;SDS011;2107;52.306;10.484;2022-08-01T06:50:14;3.60;;;3.60;;
4186;SDS011;2107;52.306;10.484;2022-08-01T06:52:41;3.60;;;3.60;;
4186;SDS011;2107;52.306;10.484;2022-08-01T06:55:08;3.80;;;3.80;;
4186;SDS011;2107;52.306;10.484;2022-08-01T06:57:35;3.40;;;3.40;;
4186;SDS011;2107;52.306;10.484;2022-08-01T07:00:03;4.67;;;4.67;;
4186;SDS011;2107;52.306;10.484;2022-08-01T07:02:34;4.87;;;4.87;;
4186;SDS011;2107;52.306;10.484;2022-08-01T07:05:02;4.40;;;4.40;;
4186;SDS011;2107;52.306;10.484;2022-08-01T07:07:29;3.80;;;3.80;;
4186;SDS011;2107;52.306;10.484;2022-08-01T07:09:56;3.80;;;3.80;;
4186;SDS011;2107;52.306;10.484;2022-08-01T07:12:23;4.00;;;4.00;;
4186;SDS011;2107;52.306;10.484;2022-08-01T07:14:50;4.00;;;4.00;;
4186;SDS011;2107;52.306;10.484;2022-08-01T07:17:17;3.30;;;3.30;;
4186;SDS011;2107;52.306;10.484;2022-08-01T07:19:46;3.27;;;3.27;;
4186;SDS011;2107;52.306;10.484;2022-08-01T07:22:14;3.10;;;3.10;;
4186;SDS011;2107;52.306;10.484;2022-08-01T07:24:41;3.63;;;3.63;;
4186;SDS011;2107;52.306;10.484;2022-08-01T07:27:08;3.90;;;3.90;;
4186;SDS011;2107;52.306;10.484;2022-08-01T07:29:35;4.10;;;4.10;;
4186;SDS011;2107;52.306;10.484;2022-08-01T07:32:01;4.70;;;4.70;;
4186;SDS011;2107;52.306;10.484;2022-08-01T07:34:29;4.80;;;4.80;;
4186;SDS011;2107;52.306;10.484;2022-08-01T07:36:57;4.60;;;4.60;;
4186;SDS011;2107;52.306;10.484;2022-08-01T07:39:24;3.47;;;3.47;;
4186;SDS011;2107;52.306;10.484;2022-08-01T07:41:51;2.37;;;2.37;;
4186;SDS011;2107;52.306;10.484;2022-08-01T07:44:18;2.37;;;2.37;;
4186;SDS011;2107;52.306;10.484;2022-08-01T07:46:44;2.13;;;2.13;;
4186;SDS011;2107;52.306;10.484;2022-08-01T07:49:11;2.20;;;2.20;;
4186;SDS011;2107;52.306;10.484;2022-08-01T07:51:38;1.80;;;1.80;;
4186;SDS011;2107;52.306;10.484;2022-08-01T07:54:07;2.17;;;2.17;;
4186;SDS011;2107;52.306;10.484;2022-08-01T07:56:34;2.43;;;2.43;;
4186;SDS011;2107;52.306;10.484;2022-08-01T07:59:00;2.50;;;2.50;;
4186;SDS011;2107;52.306;10.484;2022-08-01T08:01:27;2.10;;;2.10;;
4186;SDS011;2107;52.306;10.484;2022-08-01T08:03:54;1.87;;;1.87;;
4186;SDS011;2107;52.306;10.484;2022-08-01T08:06:21;1.50;;;1.50;;
4186;SDS011;2107;52.306;10.484;2022-08-01T08:08:48;1.20;;;1.20;;
4186;SDS011;2107;52.306;10.484;2022-08-01T08:11:16;1.20;;;1.20;;
4186;SDS011;2107;52.306;10.484;2022-08-01T08:13:43;1.10;;;1.10;;
4186;SDS011;2107;52.306;10.484;2022-08-01T08:16:10;1.07;;;1.07;;
4186;SDS011;2107;52.306;10.484;2022-08-01T08:18:37;1.10;;;1.10;;
4186;SDS011;2107;52.306;10.484;2022-08-01T08:21:04;0.90;;;0.90;;
4186;SDS011;2107;52.306;10.484;2022-08-01T08:23:31;0.90;;;0.90;;
4186;SDS011;2107;52.306;10.484;2022-08-01T08:26:12;1.00;;;1.00;;
4186;SDS011;2107;52.306;10.484;2022-08-01T08:28:40;0.90;;;0.90;;
4186;SDS011;2107;52.306;10.484;2022-08-01T08:31:07;1.00;;;1.00;;
4186;SDS011;2107;52.306;10.484;2022-08-01T08:33:34;1.00;;;1.00;;
4186;SDS011;2107;52.306;10.484;2022-08-01T08:36:01;1.10;;;1.10;;
4186;SDS011;2107;52.306;10.484;2022-08-01T08:38:28;1.00;;;1.00;;
4186;SDS011;2107;52.306;10.484;2022-08-01T08:40:54;1.03;;;1.03;;
4186;SDS011;2107;52.306;10.484;2022-08-01T08:43:22;1.20;;;1.20;;
4186;SDS011;2107;52.306;10.484;2022-08-01T08:45:52;1.00;;;1.00;;
4186;SDS011;2107;52.306;10.484;2022-08-01T08:48:20;0.80;;;0.80;;
4186;SDS011;2107;52.306;10.484;2022-08-01T08:50:48;1.00;;;1.00;;
4186;SDS011;2107;52.306;10.484;2022-08-01T08:53:17;0.97;;;0.97;;
4186;SDS011;2107;52.306;10.484;2022-08-01T08:55:45;0.97;;;0.97;;
4186;SDS011;2107;52.306;10.484;2022-08-01T08:58:13;1.00;;;1.00;;
4186;SDS011;2107;52.306;10.484;2022-08-01T09:00:41;1.00;;;1.00;;
4186;SDS011;2107;52.306;10.484;2022-08-01T09:03:09;0.90;;;0.90;;
4186;SDS011;2107;52.306;10.484;2022-08-01T09:05:36;0.90;;;0.90;;
4186;SDS011;2107;52.306;10.484;2022-08-01T09:08:06;1.00;;;1.00;;
4186;SDS011;2107;52.306;10.484;2022-08-01T09:10:33;0.77;;;0.77;;
4186;SDS011;2107;52.306;10.484;2022-08-01T09:13:04;0.70;;;0.70;;
4186;SDS011;2107;52.306;10.484;2022-08-01T09:15:39;1.00;;;1.00;;
4186;SDS011;2107;52.306;10.484;2022-08-01T09:18:10;0.90;;;0.90;;
4186;SDS011;2107;52.306;10.484;2022-08-01T09:21:00;0.90;;;0.90;;
4186;SDS011;2107;52.306;10.484;2022-08-01T09:23:38;0.80;;;0.80;;
4186;SDS011;2107;52.306;10.484;2022-08-01T09:26:07;0.70;;;0.70;;
4186;SDS011;2107;52.306;10.484;2022-08-01T09:28:35;0.80;;;0.80;;
4186;SDS011;2107;52.306;10.484;2022-08-01T09:31:05;0.80;;;0.80;;
4186;SDS011;2107;52.306;10.484;2022-08-01T09:33:52;0.80;;;0.80;;
4186;SDS011;2107;52.306;10.484;2022-08-01T09:36:20;1.00;;;1.00;;
4186;SDS011;2107;52.306;10.484;2022-08-01T09:38:48;0.90;;;0.90;;
4186;SDS011;2107;52.306;10.484;2022-08-01T09:41:16;1.10;;;1.10;;
4186;SDS011;2107;52.306;10.484;2022-08-01T09:43:47;1.00;;;1.00;;
4186;SDS011;2107;52.306;10.484;2022-08-01T09:46:16;0.80;;;0.80;;
4186;SDS011;2107;52.306;10.484;2022-08-01T09:51:31;0.70;;;0.70;;
4186;SDS011;2107;52.306;10.484;2022-08-01T09:54:00;0.70;;;0.70;;
4186;SDS011;2107;52.306;10.484;2022-08-01T09:56:35;0.80;;;0.80;;
4186;SDS011;2107;52.306;10.484;2022-08-01T09:59:03;0.90;;;0.90;;
4186;SDS011;2107;52.306;10.484;2022-08-01T10:01:44;0.80;;;0.80;;
4186;SDS011;2107;52.306;10.484;2022-08-01T10:04:15;0.70;;;0.70;;
4186;SDS011;2107;52.306;10.484;2022-08-01T10:06:44;0.60;;;0.60;;
4186;SDS011;2107;52.306;10.484;2022-08-01T10:09:14;0.53;;;0.53;;
4186;SDS011;2107;52.306;10.484;2022-08-01T10:11:52;0.60;;;0.60;;
4186;SDS011;2107;52.306;10.484;2022-08-01T10:14:20;0.50;;;0.50;;
4186;SDS011;2107;52.306;10.484;2022-08-01T10:16:50;0.70;;;0.70;;
4186;SDS011;2107;52.306;10.484;2022-08-01T10:19:20;0.80;;;0.80;;
4186;SDS011;2107;52.306;10.484;2022-08-01T10:21:48;0.80;;;0.80;;
4186;SDS011;2107;52.306;10.484;2022-08-01T10:24:17;0.70;;;0.70;;
4186;SDS011;2107;52.306;10.484;2022-08-01T10:26:46;0.70;;;0.70;;
4186;SDS011;2107;52.306;10.484;2022-08-01T10:29:15;0.70;;;0.70;;
4186;SDS011;2107;52.306;10.484;2022-08-01T10:31:43;0.77;;;0.77;;
4186;SDS011;2107;52.306;10.484;2022-08-01T10:34:10;0.80;;;0.80;;
4186;SDS011;2107;52.306;10.484;2022-08-01T10:36:41;0.70;;;0.70;;
4186;SDS011;2107;52.306;10.484;2022-08-01T10:39:10;0.50;;;0.50;;
4186;SDS011;2107;52.306;10.484;2022-08-01T10:41:38;0.50;;;0.50;;
4186;SDS011;2107;52.306;10.484;2022-08-01T10:44:06;0.70;;;0.70;;
4186;SDS011;2107;52.306;10.484;2022-08-01T10:46:34;0.70;;;0.70;;
4186;SDS011;2107;52.306;10.484;2022-08-01T10:49:04;0.60;;;0.60;;
4186;SDS011;2107;52.306;10.484;2022-08-01T10:51:36;0.90;;;0.90;;
4186;SDS011;2107;52.306;10.484;2022-08-01T10:54:06;0.70;;;0.70;;
4186;SDS011;2107;52.306;10.484;2022-08-01T10:56:42;0.90;;;0.90;;
4186;SDS011;2107;52.306;10.484;2022-08-01T10:59:14;1.00;;;1.00;;
4186;SDS011;2107;52.306;10.484;2022-08-01T11:01:48;0.90;;;0.90;;
4186;SDS011;2107;52.306;10.484;2022-08-01T11:04:28;1.00;;;1.00;;
4186;SDS011;2107;52.306;10.484;2022-08-01T11:07:03;1.00;;;1.00;;
4186;SDS011;2107;52.306;10.484;2022-08-01T11:09:39;0.70;;;0.70;;
4186;SDS011;2107;52.306;10.484;2022-08-01T11:12:08;0.90;;;0.90;;
4186;SDS011;2107;52.306;10.484;2022-08-01T11:17:53;0.63;;;0.63;;
4186;SDS011;2107;52.306;10.484;2022-08-01T11:20:21;0.90;;;0.90;;
4186;SDS011;2107;52.306;10.484;2022-08-01T11:26:17;1.00;;;1.00;;
4186;SDS011;2107;52.306;10.484;2022-08-01T11:28:44;0.70;;;0.70;;
4186;SDS011;2107;52.306;10.484;2022-08-01T11:31:32;0.60;;;0.60;;
4186;SDS011;2107;52.306;10.484;2022-08-01T11:33:59;0.67;;;0.67;;
4186;SDS011;2107;52.306;10.484;2022-08-01T11:36:27;1.00;;;1.00;;
4186;SDS011;2107;52.306;10.484;2022-08-01T11:39:13;1.10;;;1.10;;
4186;SDS011;2107;52.306;10.484;2022-08-01T11:41:43;1.00;;;1.00;;
4186;SDS011;2107;52.306;10.484;2022-08-01T11:44:12;1.00;;;1.00;;
4186;SDS011;2107;52.306;10.484;2022-08-01T11:46:49;1.00;;;1.00;;
4186;SDS011;2107;52.306;10.484;2022-08-01T11:49:27;0.90;;;0.90;;
4186;SDS011;2107;52.306;10.484;2022-08-01T11:51:58;0.60;;;0.60;;
4186;SDS011;2107;52.306;10.484;2022-08-01T11:54:27;0.90;;;0.90;;
4186;SDS011;2107;52.306;10.484;2022-08-01T11:56:57;1.00;;;1.00;;
4186;SDS011;2107;52.306;10.484;2022-08-01T11:59:26;0.90;;;0.90;;
4186;SDS011;2107;52.306;10.484;2022-08-01T12:01:53;0.70;;;0.70;;
4186;SDS011;2107;52.306;10.484;2022-08-01T12:04:20;0.67;;;0.67;;
4186;SDS011;2107;52.306;10.484;2022-08-01T12:06:47;0.70;;;0.70;;
4186;SDS011;2107;52.306;10.484;2022-08-01T12:09:15;0.60;;;0.60;;
4186;SDS011;2107;52.306;10.484;2022-08-01T12:11:45;1.13;;;1.13;;
4186;SDS011;2107;52.306;10.484;2022-08-01T12:14:19;1.00;;;1.00;;
4186;SDS011;2107;52.306;10.484;2022-08-01T12:19:19;1.00;;;1.00;;
4186;SDS011;2107;52.306;10.484;2022-08-01T12:24:35;1.10;;;1.10;;
4186;SDS011;2107;52.306;10.484;2022-08-01T12:27:03;1.10;;;1.10;;
4186;SDS011;2107;52.306;10.484;2022-08-01T12:29:33;0.90;;;0.90;;
4186;SDS011;2107;52.306;10.484;2022-08-01T12:32:01;0.90;;;0.90;;
4186;SDS011;2107;52.306;10.484;2022-08-01T12:34:29;0.90;;;0.90;;
4186;SDS011;2107;52.306;10.484;2022-08-01T12:36:59;1.10;;;1.10;;
4186;SDS011;2107;52.306;10.484;2022-08-01T12:39:33;1.00;;;1.00;;
4186;SDS011;2107;52.306;10.484;2022-08-01T12:42:01;1.20;;;1.20;;
4186;SDS011;2107;52.306;10.484;2022-08-01T12:44:31;1.00;;;1.00;;
4186;SDS011;2107;52.306;10.484;2022-08-01T12:46:59;1.37;;;1.37;;
4186;SDS011;2107;52.306;10.484;2022-08-01T12:49:27;1.50;;;1.50;;
4186;SDS011;2107;52.306;10.484;2022-08-01T12:51:54;1.50;;;1.50;;
4186;SDS011;2107;52.306;10.484;2022-08-01T12:54:22;1.43;;;1.43;;
4186;SDS011;2107;52.306;10.484;2022-08-01T12:56:50;1.30;;;1.30;;
4186;SDS011;2107;52.306;10.484;2022-08-01T12:59:19;1.50;;;1.50;;
4186;SDS011;2107;52.306;10.484;2022-08-01T13:01:49;1.60;;;1.60;;
4186;SDS011;2107;52.306;10.484;2022-08-01T13:04:17;1.50;;;1.50;;
4186;SDS011;2107;52.306;10.484;2022-08-01T13:06:44;1.57;;;1.57;;
4186;SDS011;2107;52.306;10.484;2022-08-01T13:09:12;1.50;;;1.50;;
4186;SDS011;2107;52.306;10.484;2022-08-01T13:11:39;1.40;;;1.40;;
4186;SDS011;2107;52.306;10.484;2022-08-01T13:14:06;1.20;;;1.20;;
4186;SDS011;2107;52.306;10.484;2022-08-01T13:16:34;1.20;;;1.20;;
4186;SDS011;2107;52.306;10.484;2022-08-01T13:19:12;1.00;;;1.00;;
4186;SDS011;2107;52.306;10.484;2022-08-01T13:21:40;1.20;;;1.20;;
4186;SDS011;2107;52.306;10.484;2022-08-01T13:24:24;1.00;;;1.00;;
4186;SDS011;2107;52.306;10.484;2022-08-01T13:26:53;1.00;;;1.00;;
4186;SDS011;2107;52.306;10.484;2022-08-01T13:29:28;0.90;;;0.90;;
4186;SDS011;2107;52.306;10.484;2022-08-01T13:31:56;0.90;;;0.90;;
4186;SDS011;2107;52.306;10.484;2022-08-01T13:34:30;1.00;;;1.00;;
4186;SDS011;2107;52.306;10.484;2022-08-01T13:36:59;1.00;;;1.00;;
4186;SDS011;2107;52.306;10.484;2022-08-01T13:39:27;1.10;;;1.10;;
4186;SDS011;2107;52.306;10.484;2022-08-01T13:42:06;1.10;;;1.10;;
4186;SDS011;2107;52.306;10.484;2022-08-01T13:44:33;1.20;;;1.20;;
4186;SDS011;2107;52.306;10.484;2022-08-01T13:47:01;1.03;;;1.03;;
4186;SDS011;2107;52.306;10.484;2022-08-01T13:49:28;1.20;;;1.20;;
4186;SDS011;2107;52.306;10.484;2022-08-01T13:51:55;1.30;;;1.30;;
4186;SDS011;2107;52.306;10.484;2022-08-01T13:54:23;1.20;;;1.20;;
4186;SDS011;2107;52.306;10.484;2022-08-01T13:56:51;1.50;;;1.50;;
4186;SDS011;2107;52.306;10.484;2022-08-01T13:59:18;1.40;;;1.40;;
4186;SDS011;2107;52.306;10.484;2022-08-01T14:01:46;1.10;;;1.10;;
4186;SDS011;2107;52.306;10.484;2022-08-01T14:04:13;1.30;;;1.30;;
4186;SDS011;2107;52.306;10.484;2022-08-01T14:06:40;1.20;;;1.20;;
4186;SDS011;2107;52.306;10.484;2022-08-01T14:09:07;1.30;;;1.30;;
4186;SDS011;2107;52.306;10.484;2022-08-01T14:11:36;1.60;;;1.60;;
4186;SDS011;2107;52.306;10.484;2022-08-01T14:14:02;1.40;;;1.40;;
4186;SDS011;2107;52.306;10.484;2022-08-01T14:16:29;1.90;;;1.90;;
4186;SDS011;2107;52.306;10.484;2022-08-01T14:18:56;1.40;;;1.40;;
4186;SDS011;2107;52.306;10.484;2022-08-01T14:21:23;1.40;;;1.40;;
4186;SDS011;2107;52.306;10.484;2022-08-01T14:23:50;1.20;;;1.20;;
4186;SDS011;2107;52.306;10.484;2022-08-01T14:26:17;1.40;;;1.40;;
4186;SDS011;2107;52.306;10.484;2022-08-01T14:28:45;1.10;;;1.10;;
4186;SDS011;2107;52.306;10.484;2022-08-01T14:31:12;1.20;;;1.20;;
4186;SDS011;2107;52.306;10.484;2022-08-01T14:33:39;1.20;;;1.20;;
4186;SDS011;2107;52.306;10.484;2022-08-01T14:36:06;1.47;;;1.47;;
4186;SDS011;2107;52.306;10.484;2022-08-01T14:38:33;1.40;;;1.40;;
4186;SDS011;2107;52.306;10.484;2022-08-01T14:41:00;1.60;;;1.60;;
4186;SDS011;2107;52.306;10.484;2022-08-01T14:43:28;1.50;;;1.50;;
4186;SDS011;2107;52.306;10.484;2022-08-01T14:45:58;1.30;;;1.30;;
4186;SDS011;2107;52.306;10.484;2022-08-01T14:48:25;1.50;;;1.50;;
4186;SDS011;2107;52.306;10.484;2022-08-01T14:50:52;1.50;;;1.50;;
4186;SDS011;2107;52.306;10.484;2022-08-01T14:53:19;1.70;;;1.70;;
4186;SDS011;2107;52.306;10.484;2022-08-01T14:55:46;1.20;;;1.20;;
4186;SDS011;2107;52.306;10.484;2022-08-01T14:58:13;1.20;;;1.20;;
4186;SDS011;2107;52.306;10.484;2022-08-01T15:00:40;1.00;;;1.00;;
4186;SDS011;2107;52.306;10.484;2022-08-01T15:03:08;1.20;;;1.20;;
4186;SDS011;2107;52.306;10.484;2022-08-01T15:05:35;1.03;;;1.03;;
4186;SDS011;2107;52.306;10.484;2022-08-01T15:08:02;1.93;;;1.93;;
4186;SDS011;2107;52.306;10.484;2022-08-01T15:10:30;1.43;;;1.43;;
4186;SDS011;2107;52.306;10.484;2022-08-01T15:12:58;1.90;;;1.90;;
4186;SDS011;2107;52.306;10.484;2022-08-01T15:15:26;1.33;;;1.33;;
4186;SDS011;2107;52.306;10.484;2022-08-01T15:17:53;1.27;;;1.27;;
4186;SDS011;2107;52.306;10.484;2022-08-01T15:20:21;1.23;;;1.23;;
4186;SDS011;2107;52.306;10.484;2022-08-01T15:22:48;1.40;;;1.40;;
4186;SDS011;2107;52.306;10.484;2022-08-01T15:25:15;1.50;;;1.50;;
4186;SDS011;2107;52.306;10.484;2022-08-01T15:27:42;0.90;;;0.90;;